Time;durP1;ratioP1;P1;durP2;ratioP2;P2;SDS_P1;SDS_P2;PMS_P1;PMS_P2;Temp;Humidity;BMP_temperature;BMP_pressure;BME280_temperature;BME280_humidity;BME280_pressure;Samples;Min_cycle;Max_cycle;Signal;HPM_P1;HPM_P2
2023/05/13 00:02:15;;;;;;;17.73;13.27;;;;;;;19.72;57.40;102291.63;4982911;28;20534;-48
2023/05/13 00:04:40;;;;;;;16.00;12.20;;;;;;;19.94;56.07;102288.94;4984062;28;20034;-45
2023/05/13 00:07:06;;;;;;;15.35;12.18;;;;;;;19.85;55.44;102284.56;4981250;28;20117;-46
2023/05/13 00:09:31;;;;;;;14.75;11.50;;;;;;;19.82;55.11;102290.72;4986042;28;20041;-46
2023/05/13 00:11:56;;;;;;;15.55;11.32;;;;;;;19.73;53.75;102288.09;4981900;28;20046;-47
2023/05/13 00:14:22;;;;;;;14.90;11.27;;;;;;;19.88;53.50;102279.28;4984801;28;20034;-46
2023/05/13 00:16:47;;;;;;;15.82;11.02;;;;;;;19.80;54.05;102289.88;4980400;28;20093;-54
2023/05/13 00:19:12;;;;;;;15.10;11.45;;;;;;;19.84;54.01;102290.72;4983294;28;20037;-48
2023/05/13 00:21:38;;;;;;;14.05;11.27;;;;;;;20.00;53.46;102287.16;4983065;28;20041;-53
2023/05/13 00:24:04;;;;;;;13.80;11.23;;;;;;;19.96;53.63;102289.81;4980128;28;20039;-48
2023/05/13 00:26:29;;;;;;;15.75;11.38;;;;;;;19.90;53.78;102284.53;4983297;28;20038;-52
2023/05/13 00:28:54;;;;;;;16.58;11.40;;;;;;;20.06;53.15;102281.84;4980536;28;20343;-48
2023/05/13 00:31:20;;;;;;;17.60;11.55;;;;;;;20.08;53.25;102284.47;4983077;28;20035;-52
2023/05/13 00:33:45;;;;;;;21.02;13.45;;;;;;;19.94;54.08;102287.19;4979859;28;20053;-50
2023/05/13 00:36:11;;;;;;;19.25;12.38;;;;;;;19.84;54.07;102288.06;4983690;28;20054;-46
2023/05/13 00:38:36;;;;;;;18.13;12.35;;;;;;;19.79;53.93;102296.03;4983069;28;20027;-50
2023/05/13 00:41:02;;;;;;;16.05;12.20;;;;;;;19.74;54.46;102289.00;4980196;28;20038;-47
2023/05/13 00:43:28;;;;;;;14.90;12.02;;;;;;;19.67;54.35;102284.59;4983280;28;20034;-45
2023/05/13 00:45:53;;;;;;;14.48;11.10;;;;;;;19.81;54.38;102290.75;4981208;28;20378;-47
2023/05/13 00:48:19;;;;;;;17.20;11.48;;;;;;;19.73;54.12;102287.22;4983501;28;20054;-52
2023/05/13 00:50:44;;;;;;;15.50;11.98;;;;;;;19.61;54.68;102290.78;4980659;28;20030;-45
2023/05/13 00:53:11;;;;;;;15.88;11.68;;;;;;;19.59;55.36;102289.00;4983130;28;20493;-48
2023/05/13 00:55:43;;;;;;;14.70;12.45;;;;;;;19.32;56.23;102285.50;4982779;28;20037;-50
2023/05/13 00:58:10;;;;;;;19.48;11.88;;;;;;;19.24;55.51;102291.63;4977998;28;20295;-45
2023/05/13 01:00:44;;;;;;;16.55;11.45;;;;;;;19.37;55.33;102290.75;4981005;28;20118;-51
2023/05/13 01:03:12;;;;;;;15.13;11.88;;;;;;;19.26;55.09;102290.78;4978564;28;20042;-47
2023/05/13 01:06:10;;;;;;;13.85;11.38;;;;;;;19.32;55.20;102289.88;4982889;28;20026;-48
2023/05/13 01:08:45;;;;;;;16.95;11.25;;;;;;;19.31;55.12;102293.41;4977614;28;20034;-45
2023/05/13 01:11:16;;;;;;;16.25;11.63;;;;;;;19.19;55.46;102282.84;4978884;28;20034;-48
2023/05/13 01:13:45;;;;;;;15.30;11.60;;;;;;;19.09;55.74;102287.22;4982492;28;20046;-46
2023/05/13 01:16:26;;;;;;;15.35;11.65;;;;;;;18.86;56.12;102289.84;4979373;28;20493;-48
2023/05/13 01:18:57;;;;;;;14.65;10.65;;;;;;;18.91;55.87;102280.16;4980281;28;20480;-45
2023/05/13 01:21:26;;;;;;;14.90;11.50;;;;;;;18.74;55.97;102281.88;4984012;28;20116;-46
2023/05/13 01:23:52;;;;;;;14.60;11.38;;;;;;;18.78;55.95;102286.31;4978450;28;20038;-46
2023/05/13 01:26:18;;;;;;;16.48;11.48;;;;;;;18.69;55.93;102288.03;4981829;28;20046;-49
2023/05/13 01:28:43;;;;;;;15.02;11.50;;;;;;;18.55;56.12;102286.25;4979637;28;20030;-44
2023/05/13 01:31:09;;;;;;;14.50;10.75;;;;;;;18.47;56.14;102284.44;4982350;28;20038;-50
2023/05/13 01:33:36;;;;;;;15.45;11.40;;;;;;;18.26;56.15;102282.59;4982294;28;20026;-46
2023/05/13 01:36:02;;;;;;;15.00;11.45;;;;;;;18.18;55.83;102281.66;4979313;28;20038;-50
2023/05/13 01:38:29;;;;;;;14.38;11.25;;;;;;;18.14;55.64;102287.81;4981754;28;20558;-48
2023/05/13 01:40:56;;;;;;;13.35;10.77;;;;;;;18.14;55.57;102287.81;4980147;28;20529;-45
2023/05/13 01:43:21;;;;;;;21.02;11.38;;;;;;;18.13;55.43;102289.56;4983868;28;20322;-45
2023/05/13 01:45:46;;;;;;;15.75;10.93;;;;;;;18.06;55.27;102286.88;4979621;28;20041;-47
2023/05/13 01:48:12;;;;;;;14.27;10.95;;;;;;;17.85;54.78;102285.03;4982417;28;20109;-48
2023/05/13 01:50:37;;;;;;;19.40;11.80;;;;;;;17.86;55.22;102280.63;4982013;28;20125;-48
2023/05/13 01:53:03;;;;;;;14.43;11.27;;;;;;;17.71;55.84;102291.97;4979469;28;20441;-45
2023/05/13 01:55:28;;;;;;;16.88;11.20;;;;;;;17.75;55.33;102289.34;4982108;28;20038;-46
2023/05/13 01:57:53;;;;;;;16.73;11.63;;;;;;;17.49;56.18;102282.13;4980326;28;20428;-46
2023/05/13 02:00:18;;;;;;;16.13;11.00;;;;;;;17.52;55.94;102290.03;4985477;28;20117;-50
2023/05/13 02:02:45;;;;;;;14.55;11.30;;;;;;;17.34;56.58;102289.03;4983678;28;20069;-47
2023/05/13 02:05:10;;;;;;;16.85;11.38;;;;;;;17.32;56.50;102285.50;4983965;28;20030;-50
2023/05/13 02:07:35;;;;;;;14.52;11.68;;;;;;;17.32;56.29;102293.41;4981784;28;20133;-48
2023/05/13 02:10:01;;;;;;;16.85;11.55;;;;;;;17.23;57.02;102292.44;4978110;28;24234;-46
2023/05/13 02:12:26;;;;;;;16.52;11.63;;;;;;;17.01;57.30;102291.38;4980845;28;20413;-52
2023/05/13 02:14:54;;;;;;;15.35;11.93;;;;;;;17.06;57.34;102291.41;4979797;28;20065;-47
2023/05/13 02:17:21;;;;;;;16.42;11.60;;;;;;;17.05;57.25;102295.81;4980309;28;20034;-47
2023/05/13 02:19:46;;;;;;;14.63;11.30;;;;;;;17.01;57.29;102294.03;4978159;28;20113;-46
2023/05/13 02:22:12;;;;;;;16.50;11.60;;;;;;;16.73;57.98;102305.13;4984512;28;20137;-46
2023/05/13 02:24:39;;;;;;;15.90;10.95;;;;;;;16.95;57.42;102299.22;4985368;28;20030;-44
2023/05/13 02:27:06;;;;;;;17.05;11.70;;;;;;;16.75;57.64;102301.66;4982033;28;20374;-46
2023/05/13 02:29:31;;;;;;;16.13;11.35;;;;;;;16.80;57.26;102297.31;4985747;28;20050;-49
2023/05/13 02:31:56;;;;;;;15.90;11.82;;;;;;;16.60;57.20;102301.47;4981453;28;20136;-49
2023/05/13 02:34:22;;;;;;;15.20;11.75;;;;;;;16.55;57.49;102296.13;4985598;28;20027;-49
2023/05/13 02:36:47;;;;;;;16.67;11.55;;;;;;;16.75;57.01;102304.28;4981238;28;20038;-48
2023/05/13 02:39:13;;;;;;;14.38;11.55;;;;;;;16.69;56.88;102304.22;4984789;28;20034;-46
2023/05/13 02:41:38;;;;;;;15.02;10.98;;;;;;;16.63;56.86;102297.13;4984583;28;20412;-50
2023/05/13 02:44:03;;;;;;;16.15;11.80;;;;;;;16.61;57.08;102303.25;4981626;28;20124;-46
2023/05/13 02:46:29;;;;;;;15.35;11.07;;;;;;;16.69;56.40;102306.84;4984893;28;20400;-51
2023/05/13 02:48:54;;;;;;;14.18;10.60;;;;;;;16.63;56.26;102309.41;4981795;28;20531;-49
2023/05/13 02:51:19;;;;;;;14.88;11.30;;;;;;;16.74;56.31;102307.78;4984456;28;20089;-47
2023/05/13 02:53:45;;;;;;;18.02;11.50;;;;;;;16.61;56.30;102311.16;4980970;28;20572;-48
2023/05/13 02:56:10;;;;;;;14.80;11.57;;;;;;;16.71;56.02;102310.38;4984594;28;20034;-46
2023/05/13 02:58:35;;;;;;;16.23;11.20;;;;;;;16.70;55.92;102316.53;4985217;28;20027;-48
2023/05/13 03:01:01;;;;;;;14.05;10.68;;;;;;;16.72;55.75;102308.63;4981025;28;20386;-46
2023/05/13 03:03:26;;;;;;;14.95;10.95;;;;;;;16.66;55.93;102308.56;4985392;28;20027;-46
2023/05/13 03:05:51;;;;;;;17.35;11.52;;;;;;;16.65;55.94;102306.81;4981104;28;20420;-46
2023/05/13 03:08:16;;;;;;;16.90;10.90;;;;;;;16.32;56.40;102305.50;4984739;28;20160;-46
2023/05/13 03:10:42;;;;;;;15.80;10.45;;;;;;;16.46;56.43;102305.69;4981849;28;20525;-47
2023/05/13 03:13:07;;;;;;;15.40;10.48;;;;;;;16.53;56.22;102299.59;4982608;28;20096;-46
2023/05/13 03:15:32;;;;;;;13.60;10.30;;;;;;;16.50;56.31;102305.72;4984160;28;20027;-47
2023/05/13 03:17:58;;;;;;;14.68;10.57;;;;;;;16.45;56.29;102302.16;4979019;28;20042;-45
2023/05/13 03:20:23;;;;;;;14.20;10.57;;;;;;;16.41;56.11;102300.34;4984692;28;20489;-45
2023/05/13 03:22:48;;;;;;;13.98;10.27;;;;;;;16.36;56.04;102302.03;4980823;28;20055;-48
2023/05/13 03:25:14;;;;;;;13.95;10.30;;;;;;;16.46;55.74;102308.31;4984461;28;20374;-46
2023/05/13 03:27:39;;;;;;;15.07;11.05;;;;;;;16.24;56.58;102299.25;4984458;28;20027;-46
2023/05/13 03:30:05;;;;;;;16.65;11.32;;;;;;;15.83;58.91;102304.84;4980962;28;20178;-46
2023/05/13 03:32:31;;;;;;;13.30;10.60;;;;;;;15.94;58.64;102299.72;4983291;28;20054;-48
2023/05/13 03:34:57;;;;;;;17.95;11.20;;;;;;;15.94;58.77;102305.00;4981253;28;20292;-46
2023/05/13 03:37:23;;;;;;;13.40;10.55;;;;;;;15.93;58.87;102303.22;4984071;28;20034;-45
2023/05/13 03:39:49;;;;;;;18.60;10.68;;;;;;;15.94;59.21;102307.63;4981275;28;20112;-46
2023/05/13 03:42:14;;;;;;;18.08;11.18;;;;;;;15.79;59.76;102296.91;4984267;28;20041;-47
2023/05/13 03:44:40;;;;;;;14.57;10.90;;;;;;;15.74;60.22;102309.06;4985590;28;20030;-48
2023/05/13 03:47:05;;;;;;;16.48;11.38;;;;;;;15.70;60.36;102308.16;4981998;28;20061;-46
2023/05/13 03:49:30;;;;;;;15.60;10.73;;;;;;;15.69;60.74;102310.75;4985831;28;20030;-46
2023/05/13 03:51:56;;;;;;;16.40;10.98;;;;;;;15.64;60.47;102315.06;4982043;28;20065;-51
2023/05/13 03:54:21;;;;;;;15.93;11.80;;;;;;;15.80;60.36;102311.78;4986121;28;20031;-44
2023/05/13 03:56:46;;;;;;;16.55;11.35;;;;;;;15.82;60.37;102312.69;4982496;28;20046;-48
2023/05/13 03:59:11;;;;;;;14.13;11.20;;;;;;;15.69;61.19;102319.53;4986590;28;20106;-50
2023/05/13 04:01:38;;;;;;;15.43;11.35;;;;;;;15.77;61.17;102319.63;4984221;28;20033;-47
2023/05/13 04:04:04;;;;;;;18.90;11.50;;;;;;;15.77;61.16;102319.63;4982016;28;20034;-46
2023/05/13 04:06:30;;;;;;;15.73;11.38;;;;;;;15.61;61.34;102310.66;4982777;28;20034;-47
2023/05/13 04:08:55;;;;;;;16.75;11.23;;;;;;;15.79;60.99;102310.03;4979836;28;20502;-45
2023/05/13 04:11:21;;;;;;;18.40;12.00;;;;;;;15.63;61.31;102311.53;4983538;28;20062;-48
2023/05/13 04:13:46;;;;;;;17.70;12.20;;;;;;;15.74;61.16;102311.69;4980379;28;20050;-46
2023/05/13 04:16:13;;;;;;;22.35;13.10;;;;;;;15.46;62.31;102312.97;4983804;28;20069;-46
2023/05/13 04:18:38;;;;;;;18.42;12.90;;;;;;;15.75;61.33;102309.09;4983427;28;20114;-49
2023/05/13 04:21:07;;;;;;;17.63;13.02;;;;;;;15.81;61.30;102314.44;4979994;28;20423;-49
2023/05/13 04:23:32;;;;;;;19.92;13.02;;;;;;;15.79;61.46;102310.94;4983417;28;20049;-48
2023/05/13 04:25:57;;;;;;;22.13;13.43;;;;;;;15.88;61.36;102309.28;4979652;28;20030;-48
2023/05/13 04:28:23;;;;;;;21.33;13.52;;;;;;;15.91;61.38;102319.84;4983757;28;20528;-49
2023/05/13 04:30:48;;;;;;;18.55;13.75;;;;;;;15.82;61.83;102320.59;4978944;28;20026;-45
2023/05/13 04:33:13;;;;;;;24.02;14.77;;;;;;;16.01;61.32;102327.00;4983179;28;20027;-47
2023/05/13 04:35:39;;;;;;;21.13;14.38;;;;;;;16.13;61.29;102327.16;4983207;28;20026;-45
2023/05/13 04:38:04;;;;;;;19.75;14.13;;;;;;;16.19;61.22;102319.38;4979659;28;20624;-48
2023/05/13 04:40:30;;;;;;;21.02;14.85;;;;;;;16.25;60.95;102316.81;4983025;28;20084;-48
2023/05/13 04:42:55;;;;;;;21.85;14.98;;;;;;;16.28;61.00;102319.50;4980245;28;20038;-45
2023/05/13 04:45:20;;;;;;;21.25;14.60;;;;;;;16.09;61.94;102328.91;4981859;28;20109;-50
2023/05/13 04:47:46;;;;;;;20.23;14.48;;;;;;;16.32;61.37;102326.56;4979713;28;20034;-45
2023/05/13 04:50:11;;;;;;;24.25;14.95;;;;;;;16.36;61.45;102327.47;4983321;28;20117;-45
2023/05/13 04:52:36;;;;;;;21.23;14.77;;;;;;;16.52;61.13;102332.06;4983539;28;20034;-44
2023/05/13 04:55:02;;;;;;;21.55;14.55;;;;;;;16.65;60.84;102336.63;4980530;28;20077;-51
2023/05/13 04:57:27;;;;;;;23.05;15.55;;;;;;;16.39;61.74;102336.31;4984651;28;20034;-45
2023/05/13 04:59:52;;;;;;;21.05;14.82;;;;;;;16.40;62.20;102334.56;4981942;28;20489;-50
2023/05/13 05:02:18;;;;;;;21.63;15.10;;;;;;;16.52;61.55;102337.34;4985680;28;20037;-45
2023/05/13 05:04:43;;;;;;;22.52;15.30;;;;;;;16.51;62.16;102333.81;4983602;28;20038;-45
2023/05/13 05:07:09;;;;;;;21.65;15.68;;;;;;;16.53;62.16;102329.44;4987627;28;20125;-47
2023/05/13 05:09:34;;;;;;;23.73;16.30;;;;;;;16.69;62.88;102332.31;4987956;28;20452;-46
2023/05/13 05:11:59;;;;;;;25.25;15.65;;;;;;;17.31;62.67;102333.84;4980597;28;20046;-52
2023/05/13 05:14:25;;;;;;;22.10;14.93;;;;;;;17.92;59.65;102329.06;4994191;28;20045;-48
2023/05/13 05:16:50;;;;;;;26.00;17.02;;;;;;;18.65;55.83;102334.72;4991438;28;20035;-46
2023/05/13 05:19:15;;;;;;;24.33;16.40;;;;;;;19.84;53.13;102333.94;4983436;28;20469;-48
2023/05/13 05:21:41;;;;;;;23.63;16.20;;;;;;;20.68;50.26;102336.34;4980767;28;20043;-45
2023/05/13 05:24:06;;;;;;;25.58;15.15;;;;;;;21.39;48.10;102330.59;4979294;28;20041;-50
2023/05/13 05:26:32;;;;;;;23.38;16.23;;;;;;;21.61;47.21;102327.75;4982206;28;20069;-50
2023/05/13 05:28:57;;;;;;;23.90;16.05;;;;;;;21.42;47.20;102340.28;4979628;28;20034;-49
2023/05/13 05:31:22;;;;;;;25.17;16.33;;;;;;;21.34;48.31;102342.16;4983440;28;20517;-48
2023/05/13 05:33:48;;;;;;;24.23;15.90;;;;;;;21.68;46.95;102340.97;4979859;28;20038;-45
2023/05/13 05:36:13;;;;;;;23.05;15.15;;;;;;;22.73;43.81;102337.16;4982865;28;20039;-48
2023/05/13 05:38:38;;;;;;;23.40;15.32;;;;;;;23.31;42.29;102346.91;4982540;28;20529;-45
2023/05/13 05:41:04;;;;;;;26.73;15.20;;;;;;;23.78;41.61;102340.84;4980470;28;20093;-46
2023/05/13 05:43:29;;;;;;;21.95;13.88;;;;;;;23.93;42.03;102334.34;4986939;28;20034;-51
2023/05/13 05:45:55;;;;;;;23.75;14.55;;;;;;;23.71;41.89;102336.53;4980537;28;20030;-44
2023/05/13 05:48:20;;;;;;;18.42;13.77;;;;;;;24.05;42.24;102342.97;4983195;28;20501;-45
2023/05/13 05:50:45;;;;;;;23.52;15.05;;;;;;;23.67;42.00;102342.78;4979331;28;20134;-45
2023/05/13 05:53:10;;;;;;;21.48;14.23;;;;;;;24.27;40.75;102340.81;4982441;28;20062;-45
2023/05/13 05:55:36;;;;;;;24.50;14.23;;;;;;;24.04;41.08;102335.00;4983088;28;20042;-47
2023/05/13 05:58:05;;;;;;;20.85;14.32;;;;;;;24.25;40.09;102334.63;4983120;28;21405;-47
2023/05/13 06:00:31;;;;;;;19.20;14.07;;;;;;;24.53;38.31;102340.25;4985514;28;20081;-48
2023/05/13 06:02:57;;;;;;;19.88;13.50;;;;;;;25.79;37.57;102342.63;4983376;28;20030;-47
2023/05/13 06:05:22;;;;;;;18.52;12.88;;;;;;;25.46;37.49;102342.53;4986626;28;20327;-51
2023/05/13 06:07:48;;;;;;;18.23;13.90;;;;;;;24.46;39.24;102343.94;4982784;28;20034;-46
2023/05/13 06:10:13;;;;;;;20.42;13.40;;;;;;;24.54;38.23;102345.56;4986029;28;20034;-46
2023/05/13 06:12:39;;;;;;;18.77;13.00;;;;;;;24.55;39.40;102347.31;4985847;28;20038;-52
2023/05/13 06:15:09;;;;;;;16.45;12.18;;;;;;;25.25;38.41;102337.72;4981053;28;20666;-49
2023/05/13 06:17:35;;;;;;;24.02;12.70;;;;;;;25.87;36.37;102340.59;4985816;28;20031;-51
2023/05/13 06:20:00;;;;;;;21.02;13.20;;;;;;;25.08;37.54;102341.72;4982316;28;20382;-45
2023/05/13 06:22:25;;;;;;;18.23;11.27;;;;;;;26.63;35.55;102342.00;4986160;28;20026;-48
2023/05/13 06:24:51;;;;;;;16.83;11.63;;;;;;;26.44;36.18;102340.81;4979529;28;20039;-47
2023/05/13 06:27:16;;;;;;;17.80;11.77;;;;;;;26.87;34.86;102334.16;4983424;28;20077;-46
2023/05/13 06:29:41;;;;;;;15.02;10.50;;;;;;;26.96;34.80;102340.09;4985645;28;20038;-49
2023/05/13 06:32:07;;;;;;;17.02;12.35;;;;;;;26.03;35.26;102347.31;4981837;28;20121;-47
2023/05/13 06:34:32;;;;;;;16.05;10.48;;;;;;;27.22;34.25;102344.63;4985220;28;20054;-46
2023/05/13 06:36:57;;;;;;;18.55;11.20;;;;;;;27.12;33.52;102340.50;4982266;28;20579;-50
2023/05/13 06:39:23;;;;;;;17.33;11.75;;;;;;;26.81;33.92;102335.22;4985559;28;20038;-48
2023/05/13 06:41:48;;;;;;;15.80;11.05;;;;;;;26.38;34.80;102338.31;4981982;28;20035;-51
2023/05/13 06:44:13;;;;;;;15.73;11.70;;;;;;;26.44;34.47;102337.25;4985999;28;20552;-46
2023/05/13 06:46:39;;;;;;;16.45;11.10;;;;;;;26.23;35.16;102342.28;4985066;28;20087;-45
2023/05/13 06:49:04;;;;;;;17.77;11.77;;;;;;;25.18;36.76;102351.28;4981831;28;20037;-45
2023/05/13 06:51:31;;;;;;;16.40;11.60;;;;;;;26.54;35.00;102347.63;4984955;28;20353;-44
2023/05/13 06:53:57;;;;;;;17.23;10.90;;;;;;;26.97;34.44;102346.34;4981323;28;20122;-45
2023/05/13 06:56:22;;;;;;;18.45;11.52;;;;;;;26.44;34.82;102345.28;4981332;28;20129;-47
2023/05/13 06:58:49;;;;;;;21.20;11.75;;;;;;;25.85;35.56;102347.81;4979223;28;20069;-44
2023/05/13 07:01:15;;;;;;;17.35;10.40;;;;;;;26.84;34.55;102344.94;4984205;28;20034;-45
2023/05/13 07:03:41;;;;;;;16.42;10.63;;;;;;;26.88;33.86;102346.63;4984665;28;20027;-48
2023/05/13 07:06:06;;;;;;;15.00;11.07;;;;;;;27.21;33.12;102345.56;4982222;28;20045;-45
2023/05/13 07:08:31;;;;;;;14.07;10.15;;;;;;;26.55;33.78;102348.50;4985261;28;20027;-45
2023/05/13 07:10:57;;;;;;;18.52;10.30;;;;;;;26.32;34.25;102342.97;4983042;28;20034;-47
2023/05/13 07:13:22;;;;;;;14.18;9.23;;;;;;;27.23;33.42;102351.75;4987045;28;20509;-47
2023/05/13 07:15:47;;;;;;;13.48;8.90;;;;;;;27.74;32.39;102351.84;4983275;28;20084;-47
2023/05/13 07:18:13;;;;;;;17.98;8.43;;;;;;;28.35;32.71;102343.41;4986790;28;20042;-48
2023/05/13 07:20:39;;;;;;;13.60;9.27;;;;;;;27.28;32.96;102344.44;4986448;28;20034;-43
2023/05/13 07:23:04;;;;;;;12.20;9.43;;;;;;;26.40;33.90;102347.19;4983362;28;20077;-49
2023/05/13 07:25:29;;;;;;;12.82;9.52;;;;;;;26.56;33.66;102351.13;4995994;23;20035;-80
2023/05/13 07:27:55;;;;;;;15.63;8.77;;;;;;;26.80;33.68;102343.28;4996944;28;20021;-82
2023/05/13 07:30:20;;;;;;;14.38;9.02;;;;;;;26.61;34.24;102351.00;4996523;28;20483;-82
2023/05/13 07:32:46;;;;;;;13.57;8.45;;;;;;;26.73;33.60;102344.38;4983530;28;20100;-81
2023/05/13 07:35:15;;;;;;;13.98;8.93;;;;;;;27.58;32.45;102339.88;4987693;28;20049;-80
2023/05/13 07:37:43;;;;;;;15.68;8.77;;;;;;;27.62;32.46;102338.88;4986044;28;20030;-80
2023/05/13 07:40:19;;;;;;;16.80;8.55;;;;;;;27.38;31.29;102342.34;4981872;28;20057;-80
2023/05/13 07:42:47;;;;;;;12.88;8.63;;;;;;;27.51;33.21;102338.31;4983148;28;20040;-79
2023/05/13 07:45:15;;;;;;;10.68;7.10;;;;;;;28.83;31.90;102333.50;4987566;28;20030;-81
2023/05/13 07:47:44;;;;;;;11.73;8.45;;;;;;;28.65;31.03;102342.25;4988269;28;20042;-82
2023/05/13 07:50:09;;;;;;;14.32;7.13;;;;;;;29.03;30.07;102336.22;4982582;28;20033;-79
2023/05/13 07:52:35;;;;;;;10.73;6.78;;;;;;;29.46;29.50;102342.53;4984843;28;20034;-80
2023/05/13 07:55:00;;;;;;;11.98;8.02;;;;;;;28.16;30.16;102329.81;4981910;28;20026;-80
2023/05/13 07:57:26;;;;;;;8.70;6.90;;;;;;;28.93;29.60;102337.56;4990741;28;20034;-79
2023/05/13 07:59:57;;;;;;;10.88;7.45;;;;;;;29.32;29.67;102337.75;4981735;28;20077;-78
2023/05/13 08:02:26;;;;;;;9.65;6.90;;;;;;;29.46;29.73;102336.31;4986948;28;20117;-79
2023/05/13 08:04:51;;;;;;;9.75;6.90;;;;;;;29.21;28.27;102337.31;4982559;28;20062;-79
2023/05/13 08:07:19;;;;;;;11.88;7.55;;;;;;;28.03;29.93;102336.50;4984781;28;20030;-79
2023/05/13 08:09:47;;;;;;;12.57;7.32;;;;;;;27.89;30.14;102337.00;4980841;28;20045;-79
2023/05/13 08:12:13;;;;;;;10.57;6.70;;;;;;;27.73;30.28;102331.31;4988236;28;20053;-80
2023/05/13 08:14:38;;;;;;;13.70;7.40;;;;;;;26.45;32.21;102333.66;4983320;28;20499;-80
2023/05/13 08:17:06;;;;;;;10.35;7.35;;;;;;;25.95;32.85;102340.41;4979587;28;20403;-80
2023/05/13 08:19:31;;;;;;;10.68;7.75;;;;;;;26.08;32.43;102331.13;4978914;28;20037;-80
2023/05/13 08:21:56;;;;;;;11.30;7.65;;;;;;;25.52;33.38;102345.97;4984117;28;20030;-80
2023/05/13 08:24:28;;;;;;;15.77;7.65;;;;;;;24.52;36.55;102347.38;5000936;28;20044;-79
2023/05/13 08:26:53;;;;;;;11.60;7.88;;;;;;;23.95;38.03;102343.19;4999548;28;20089;-79
2023/05/13 08:29:19;;;;;;;14.73;7.85;;;;;;;23.73;37.65;102332.03;5001722;28;20031;-79
2023/05/13 08:31:44;;;;;;;12.20;7.70;;;;;;;23.33;38.53;102355.75;4987677;28;20104;-79
2023/05/13 08:34:09;;;;;;;13.02;7.57;;;;;;;23.54;39.04;102347.47;4989776;28;20038;-80
2023/05/13 08:36:35;;;;;;;13.48;7.93;;;;;;;23.09;39.27;102348.16;4986953;28;20030;-78
2023/05/13 08:39:00;;;;;;;12.60;7.60;;;;;;;22.91;38.47;102349.31;4984774;28;20027;-79
2023/05/13 08:41:30;;;;;;;12.95;7.70;;;;;;;22.93;39.56;102350.19;4987183;28;20169;-79
2023/05/13 08:43:56;;;;;;;10.98;6.90;;;;;;;23.23;39.70;102351.50;4983852;28;20138;-79
2023/05/13 08:46:27;;;;;;;13.57;6.78;;;;;;;23.29;38.86;102356.72;4988768;28;20037;-79
2023/05/13 08:48:54;;;;;;;11.93;6.93;;;;;;;23.41;38.54;102354.75;4982469;28;20045;-79
2023/05/13 08:51:20;;;;;;;10.80;6.60;;;;;;;23.10;40.02;102352.59;4972249;28;20812;-81
2023/05/13 08:53:46;;;;;;;12.65;7.10;;;;;;;23.80;38.93;102357.66;4990177;28;20038;-79
2023/05/13 08:56:12;;;;;;;10.77;6.80;;;;;;;23.39;37.88;102363.66;4994034;28;20040;-80
2023/05/13 08:58:37;;;;;;;11.52;6.85;;;;;;;23.48;38.36;102350.25;4995140;28;20093;-78
2023/05/13 09:01:04;;;;;;;13.77;7.05;;;;;;;23.65;38.16;102352.59;4999363;28;21590;-78
2023/05/13 09:03:33;;;;;;;13.23;7.05;;;;;;;23.75;37.45;102348.88;4995987;28;20022;-80
2023/05/13 09:06:00;;;;;;;10.70;6.80;;;;;;;23.31;37.85;102360.22;4992883;28;20035;-80
2023/05/13 09:08:26;;;;;;;10.57;6.70;;;;;;;22.96;38.41;102358.97;4981225;28;20030;-79
2023/05/13 09:10:52;;;;;;;13.57;7.50;;;;;;;23.39;38.48;102351.22;4991276;28;20104;-79
2023/05/13 09:13:23;;;;;;;9.30;6.30;;;;;;;23.65;38.13;102358.81;4993802;28;20034;-79
2023/05/13 09:15:49;;;;;;;12.45;6.40;;;;;;;23.29;38.04;102362.06;4994432;28;20102;-79
2023/05/13 09:18:14;;;;;;;12.38;6.50;;;;;;;22.93;38.53;102355.50;4984626;28;20026;-79
2023/05/13 09:20:40;;;;;;;13.38;6.13;;;;;;;23.48;39.01;102360.00;4985461;28;20034;-81
2023/05/13 09:23:09;;;;;;;11.60;6.20;;;;;;;23.26;39.72;102359.41;4995744;28;20042;-80
2023/05/13 09:25:42;;;;;;;10.23;6.40;;;;;;;23.62;39.51;102360.63;5000383;28;20042;-79
2023/05/13 09:28:16;;;;;;;13.23;6.00;;;;;;;23.77;37.76;102350.59;4995281;28;20046;-79
2023/05/13 09:30:41;;;;;;;11.65;6.28;;;;;;;23.90;37.27;102353.06;5002322;28;20064;-80
2023/05/13 09:33:20;;;;;;;12.13;6.30;;;;;;;23.64;37.37;102346.41;4999563;28;20308;-80
2023/05/13 09:36:02;;;;;;;11.75;6.82;;;;;;;23.53;37.97;102356.38;5001145;28;20530;-79
2023/05/13 09:38:30;;;;;;;7.60;5.82;;;;;;;23.49;38.13;102353.75;5005718;28;20031;-77
2023/05/13 09:41:01;;;;;;;11.75;6.20;;;;;;;23.29;37.02;102357.59;5002805;28;20098;-79
2023/05/13 09:43:31;;;;;;;12.80;5.97;;;;;;;23.19;37.32;102355.97;5003255;28;20041;-81
2023/05/13 09:46:00;;;;;;;14.88;6.70;;;;;;;23.40;37.40;102349.44;4994667;28;20034;-79
2023/05/13 09:48:28;;;;;;;9.82;5.90;;;;;;;23.60;36.79;102349.16;4992848;28;20038;-79
2023/05/13 09:51:00;;;;;;;8.25;6.10;;;;;;;23.63;37.54;102351.75;4990729;28;20041;-79
2023/05/13 09:53:26;;;;;;;11.82;6.15;;;;;;;23.94;36.54;102344.09;4991517;28;20034;-80
2023/05/13 09:55:56;;;;;;;14.00;6.30;;;;;;;24.01;36.79;102341.28;4985159;28;20038;-79
2023/05/13 09:58:23;;;;;;;10.43;6.60;;;;;;;23.95;37.42;102338.75;4991351;28;20026;-80
2023/05/13 10:00:50;;;;;;;12.20;7.18;;;;;;;23.84;42.08;102343.38;4990917;28;20400;-80
2023/05/13 10:03:19;;;;;;;9.52;6.25;;;;;;;24.03;40.44;102330.59;4998815;28;20036;-80
2023/05/13 10:05:44;;;;;;;9.15;6.35;;;;;;;24.34;38.59;102328.22;4992553;28;20092;-79
2023/05/13 10:08:12;;;;;;;10.73;6.28;;;;;;;24.14;38.57;102331.28;4993837;28;20031;-82
2023/05/13 10:10:39;;;;;;;11.10;6.47;;;;;;;24.00;36.31;102333.31;4993477;28;20172;-78
2023/05/13 10:13:09;;;;;;;12.27;6.05;;;;;;;24.33;36.81;102329.16;4986377;28;20056;-79
2023/05/13 10:15:35;;;;;;;10.15;6.20;;;;;;;24.53;36.17;102326.91;4988678;28;20454;-80
2023/05/13 10:18:01;;;;;;;16.88;8.32;;;;;;;23.86;42.94;102333.56;4987949;28;20030;-80
2023/05/13 10:20:33;;;;;;;19.55;8.43;;;;;;;24.26;43.84;102320.41;4989928;28;20034;-81
2023/05/13 10:22:59;;;;;;;19.88;8.40;;;;;;;24.08;45.21;102321.63;4991436;28;20582;-80
2023/05/13 10:25:30;;;;;;;12.98;7.30;;;;;;;24.17;42.59;102320.53;4990725;28;20103;-80
2023/05/13 10:28:00;;;;;;;18.17;8.65;;;;;;;24.62;43.72;102327.63;4994317;28;20111;-80
2023/05/13 10:30:28;;;;;;;23.02;8.85;;;;;;;24.59;43.88;102321.44;4993589;28;20535;-80
2023/05/13 10:32:53;;;;;;;17.98;8.95;;;;;;;23.48;45.36;102325.41;4992453;28;20038;-79
2023/05/13 10:35:26;;;;;;;16.88;8.60;;;;;;;23.83;45.68;102323.88;4996610;28;20058;-79
2023/05/13 10:38:03;;;;;;;22.83;8.83;;;;;;;;;;4987074;28;20042;-80
2023/05/13 10:40:50;;;;;;;14.10;8.25;;;;;;;23.98;42.80;102330.66;4998786;28;20022;-79
2023/05/13 10:43:29;;;;;;;19.23;9.40;;;;;;;23.63;48.35;102326.00;5000818;28;20038;-81
2023/05/13 10:46:00;;;;;;;25.42;10.27;;;;;;;23.72;49.27;102319.66;4994761;28;20058;-78
2023/05/13 10:48:26;;;;;;;24.58;9.70;;;;;;;23.77;49.47;102323.97;5022101;28;20062;-78
2023/05/13 10:51:02;;;;;;;20.63;9.60;;;;;;;23.39;49.84;102324.63;4991656;28;20022;-80
2023/05/13 10:53:34;;;;;;;23.05;9.43;;;;;;;23.46;47.66;102317.41;5000166;28;20034;-80
2023/05/13 10:56:06;;;;;;;23.55;10.10;;;;;;;22.67;50.21;102323.91;4983446;28;20021;-79
2023/05/13 10:58:36;;;;;;;19.02;9.25;;;;;;;23.02;49.97;102318.13;5009324;28;20568;-79
2023/05/13 11:01:24;;;;;;;21.60;9.57;;;;;;;23.56;47.82;102318.13;4980570;28;20050;-80
2023/05/13 11:03:58;;;;;;;27.65;10.20;;;;;;;23.15;49.67;102321.47;5002187;28;20034;-79
2023/05/13 11:06:35;;;;;;;21.25;9.15;;;;;;;23.85;48.55;102318.47;4987589;28;20056;-80
2023/05/13 11:09:19;;;;;;;18.52;8.65;;;;;;;23.99;47.42;102315.56;4982865;28;20042;-80
2023/05/13 11:12:13;;;;;;;19.98;8.75;;;;;;;24.45;47.19;102313.78;4997843;28;20094;-80